Time;durP1;ratioP1;P1;durP2;ratioP2;P2;SDS_P1;SDS_P2;PMS_P1;PMS_P2;Temp;Humidity;BMP_temperature;BMP_pressure;BME280_temperature;BME280_humidity;BME280_pressure;Samples;Min_cycle;Max_cycle;Signal;HPM_P1;HPM_P2
2022/12/11 00:02:22;;;;;;;13.10;12.00;;;;;;;9.15;100.00;90837.00;5094754;28;20287;-70
2022/12/11 00:04:48;;;;;;;14.67;13.57;;;;;;;9.29;100.00;90833.09;5111831;28;20244;-69
2022/12/11 00:07:13;;;;;;;19.63;15.30;;;;;;;9.31;100.00;90828.34;5112266;28;20258;-70
2022/12/11 00:09:38;;;;;;;25.77;17.67;;;;;;;8.96;100.00;90842.59;5112324;28;20195;-71
2022/12/11 00:12:06;;;;;;;16.73;15.03;;;;;;;9.19;100.00;90796.25;5112118;28;20287;-71
2022/12/11 00:14:32;;;;;;;24.43;19.50;;;;;;;8.99;100.00;90836.78;5113017;28;20307;-71
2022/12/11 00:16:57;;;;;;;20.23;17.40;;;;;;;9.07;100.00;90822.97;5109909;28;20219;-71
2022/12/11 00:19:22;;;;;;;20.67;16.53;;;;;;;9.18;100.00;90826.72;5094664;28;20196;-70
2022/12/11 00:21:48;;;;;;;18.27;16.00;;;;;;;9.16;100.00;90800.25;5094309;28;20247;-70
2022/12/11 00:24:13;;;;;;;14.47;13.30;;;;;;;8.99;100.00;90836.78;5112463;28;20215;-72
2022/12/11 00:26:39;;;;;;;16.47;14.77;;;;;;;9.02;100.00;90817.16;5109674;28;20237;-71
2022/12/11 00:29:04;;;;;;;16.63;14.93;;;;;;;8.93;100.00;90795.59;5112493;28;20253;-71
2022/12/11 00:31:30;;;;;;;18.17;15.87;;;;;;;9.15;100.00;90831.81;5111558;28;20253;-71
2022/12/11 00:33:55;;;;;;;16.50;14.90;;;;;;;9.17;100.00;90809.59;5112222;28;20251;-71
2022/12/11 00:36:24;;;;;;;17.50;15.63;;;;;;;8.95;100.00;90822.09;5111677;28;20250;-72
2022/12/11 00:38:50;;;;;;;17.17;15.03;;;;;;;8.97;100.00;90819.91;5112317;28;20181;-71
2022/12/11 00:41:16;;;;;;;16.60;14.90;;;;;;;8.99;100.00;90807.38;5111429;28;20250;-71
2022/12/11 00:43:42;;;;;;;16.60;14.90;;;;;;;9.06;100.00;90802.44;5112052;28;20209;-70
2022/12/11 00:46:07;;;;;;;16.53;15.03;;;;;;;8.81;100.00;90795.50;5110823;28;20310;-71
2022/12/11 00:48:33;;;;;;;15.53;13.93;;;;;;;8.92;100.00;90794.84;5111889;28;20184;-72
2022/12/11 00:50:59;;;;;;;16.03;14.60;;;;;;;8.91;100.00;90811.53;5093435;28;20227;-71
2022/12/11 00:53:24;;;;;;;15.13;13.63;;;;;;;8.84;100.00;90803.44;5111804;28;20335;-70
2022/12/11 00:55:50;;;;;;;18.50;15.50;;;;;;;8.89;100.00;90797.28;5111137;28;20236;-71
2022/12/11 00:58:16;;;;;;;19.53;13.27;;;;;;;8.96;100.00;90802.78;5111986;28;20180;-71
2022/12/11 01:00:42;;;;;;;16.13;14.43;;;;;;;8.89;100.00;90839.69;5111109;28;20250;-71
2022/12/11 01:03:08;;;;;;;14.60;13.37;;;;;;;8.84;100.00;90808.63;5111707;28;20180;-71
2022/12/11 01:05:33;;;;;;;16.87;15.10;;;;;;;9.03;100.00;90810.84;5110785;28;20192;-70
2022/12/11 01:07:59;;;;;;;16.77;13.37;;;;;;;9.18;100.00;90792.13;5111285;28;20214;-71
2022/12/11 01:10:24;;;;;;;14.93;13.73;;;;;;;9.61;100.00;90803.84;5110742;28;20236;-71
2022/12/11 01:12:52;;;;;;;15.43;13.83;;;;;;;9.69;100.00;90803.03;5111416;28;20211;-71
2022/12/11 01:15:22;;;;;;;15.70;14.13;;;;;;;9.82;100.00;90785.63;5110620;28;20190;-72
2022/12/11 01:17:48;;;;;;;15.90;14.47;;;;;;;9.45;100.00;90761.19;5111300;28;20241;-72
2022/12/11 01:20:14;;;;;;;13.60;12.43;;;;;;;9.93;100.00;90784.13;5080582;28;20192;-71
2022/12/11 01:22:40;;;;;;;13.97;12.50;;;;;;;10.07;100.00;90815.94;5110871;28;20272;-70
2022/12/11 01:25:05;;;;;;;12.90;11.87;;;;;;;10.22;100.00;90831.03;5093455;28;20218;-71
2022/12/11 01:27:31;;;;;;;9.63;9.03;;;;;;;11.18;100.00;90817.50;5092884;28;20252;-71
2022/12/11 01:29:56;;;;;;;9.00;8.70;;;;;;;11.89;100.00;90820.47;5110976;28;20260;-72
2022/12/11 01:32:21;;;;;;;9.40;9.00;;;;;;;11.82;100.00;90841.94;5110849;28;20226;-71
2022/12/11 01:34:47;;;;;;;8.63;8.23;;;;;;;11.76;100.00;90809.25;5092509;28;20185;-71
2022/12/11 01:37:12;;;;;;;9.03;8.73;;;;;;;11.71;100.00;90788.56;5110225;28;20219;-71
2022/12/11 01:39:38;;;;;;;8.60;8.30;;;;;;;11.81;100.00;90763.81;5111107;28;20213;-70
2022/12/11 01:42:05;;;;;;;8.50;8.20;;;;;;;11.71;100.00;90753.81;5092648;28;20208;-72
2022/12/11 01:44:30;;;;;;;8.37;8.10;;;;;;;11.72;100.00;90734.44;5111417;28;20226;-71
2022/12/11 01:46:56;;;;;;;8.87;8.50;;;;;;;11.67;100.00;90745.88;5110329;28;20221;-71
2022/12/11 01:49:25;;;;;;;7.80;7.60;;;;;;;11.49;100.00;90738.59;5106973;28;20191;-72
2022/12/11 01:52:01;;;;;;;8.83;8.53;;;;;;;11.64;100.00;90706.59;5110277;28;20248;-72
2022/12/11 01:54:28;;;;;;;8.53;8.23;;;;;;;11.56;100.00;90674.22;5110156;28;20182;-72
2022/12/11 01:57:00;;;;;;;9.17;8.87;;;;;;;11.81;100.00;90701.09;5109529;28;20249;-70
2022/12/11 01:59:30;;;;;;;11.57;11.17;;;;;;;12.04;100.00;90730.84;5110532;28;20192;-69
2022/12/11 02:02:22;;;;;;;9.07;8.57;;;;;;;11.74;100.00;90730.41;5109623;28;20276;-69
2022/12/11 02:04:48;;;;;;;8.73;8.43;;;;;;;11.97;97.73;90709.75;5099465;28;20199;-69
2022/12/11 02:07:14;;;;;;;8.67;8.37;;;;;;;11.89;98.51;90708.03;5091837;28;20220;-69
2022/12/11 02:09:43;;;;;;;8.67;8.37;;;;;;;11.93;96.27;90665.19;5110658;28;20224;-69
2022/12/11 02:12:33;;;;;;;8.50;8.27;;;;;;;11.91;98.38;90656.94;5110012;28;20225;-69
2022/12/11 02:15:16;;;;;;;9.70;8.97;;;;;;;11.89;100.00;90684.50;5110021;28;20196;-70
2022/12/11 02:17:41;;;;;;;9.27;8.97;;;;;;;11.76;100.00;90675.94;5109300;28;20283;-69
2022/12/11 02:20:30;;;;;;;9.27;8.90;;;;;;;11.89;100.00;90666.94;5092602;28;20221;-69
2022/12/11 02:23:10;;;;;;;9.47;9.07;;;;;;;12.14;100.00;90678.81;5110255;28;20208;-71
2022/12/11 02:25:51;;;;;;;8.80;8.27;;;;;;;12.12;100.00;90688.13;5108576;28;20231;-70
2022/12/11 02:28:30;;;;;;;9.17;8.87;;;;;;;11.77;100.00;90650.53;5109925;28;20221;-70
2022/12/11 02:31:01;;;;;;;9.57;9.07;;;;;;;12.05;100.00;90643.44;5109017;28;20243;-69
2022/12/11 02:33:36;;;;;;;10.57;10.17;;;;;;;12.70;100.00;90642.84;5110379;28;20220;-69
2022/12/11 02:36:03;;;;;;;9.23;8.83;;;;;;;12.67;100.00;90646.13;5109540;28;20280;-70
2022/12/11 02:38:33;;;;;;;9.13;8.53;;;;;;;12.66;99.85;90649.84;5107623;28;20186;-70
2022/12/11 02:41:00;;;;;;;9.60;9.20;;;;;;;12.70;98.88;90655.94;5099406;28;20217;-70
2022/12/11 02:43:29;;;;;;;9.40;9.00;;;;;;;12.68;99.42;90658.88;5110058;28;20249;-70
2022/12/11 02:45:56;;;;;;;9.73;9.27;;;;;;;12.63;97.44;90647.91;5109023;28;20216;-69
2022/12/11 02:48:23;;;;;;;9.23;8.83;;;;;;;12.82;95.94;90663.72;5109986;28;20186;-69
2022/12/11 02:50:52;;;;;;;9.67;9.27;;;;;;;12.84;89.98;90641.31;5091731;28;20299;-69
2022/12/11 02:53:22;;;;;;;9.30;8.90;;;;;;;12.93;91.21;90664.72;5109602;28;20220;-70
2022/12/11 02:55:53;;;;;;;8.50;8.20;;;;;;;12.85;87.78;90653.31;5097483;28;20223;-70
2022/12/11 02:58:24;;;;;;;8.47;8.13;;;;;;;12.94;86.60;90667.00;5103450;28;20192;-69
2022/12/11 03:00:50;;;;;;;8.73;8.33;;;;;;;13.11;84.01;90655.41;5104878;28;20262;-69
2022/12/11 03:03:15;;;;;;;8.60;8.10;;;;;;;13.13;85.54;90648.00;5109173;28;20738;-69
2022/12/11 03:05:41;;;;;;;9.07;8.67;;;;;;;13.19;85.82;90683.31;5109130;28;20240;-70
2022/12/11 03:08:07;;;;;;;8.63;8.33;;;;;;;13.08;88.57;90681.53;5110183;28;20172;-70
2022/12/11 03:10:32;;;;;;;8.37;8.07;;;;;;;13.18;87.74;90675.78;5095599;28;20188;-69
2022/12/11 03:12:59;;;;;;;8.10;7.80;;;;;;;13.19;87.32;90648.47;5113941;28;20208;-69
2022/12/11 03:15:54;;;;;;;8.93;8.40;;;;;;;13.11;88.72;90650.19;5109082;28;20185;-68
2022/12/11 03:18:37;;;;;;;9.10;8.70;;;;;;;13.14;89.94;90659.22;5070597;28;21071;-70
2022/12/11 03:21:37;;;;;;;8.70;8.10;;;;;;;13.31;84.47;90672.72;5102042;28;20236;-69
2022/12/11 03:24:09;;;;;;;8.70;8.20;;;;;;;13.36;84.67;90701.28;5094357;28;20207;-70
2022/12/11 03:26:42;;;;;;;9.63;9.23;;;;;;;13.14;86.99;90743.81;5112282;28;20220;-69
2022/12/11 03:29:34;;;;;;;8.80;8.40;;;;;;;13.13;86.08;90750.16;5113767;28;20188;-70
2022/12/11 03:32:12;;;;;;;8.93;8.43;;;;;;;13.13;85.50;90750.16;5112463;28;20245;-70
2022/12/11 03:34:46;;;;;;;8.53;8.23;;;;;;;13.31;83.95;90751.31;5113568;28;20182;-69
2022/12/11 03:37:13;;;;;;;8.37;8.00;;;;;;;13.17;85.50;90774.56;5100475;28;20238;-69
2022/12/11 03:39:47;;;;;;;9.33;8.93;;;;;;;13.18;84.45;90770.88;5113073;28;20888;-69
2022/12/11 03:42:15;;;;;;;8.50;8.10;;;;;;;13.14;84.47;90754.28;5112726;28;20280;-69
2022/12/11 03:44:45;;;;;;;8.63;8.33;;;;;;;13.24;83.96;90763.50;5107207;28;20189;-71
2022/12/11 03:47:16;;;;;;;8.57;8.27;;;;;;;13.25;84.30;90752.69;5112474;28;20212;-70
2022/12/11 03:49:44;;;;;;;8.77;8.37;;;;;;;13.26;83.30;90761.31;5112386;28;20188;-69
2022/12/11 03:52:12;;;;;;;8.20;7.90;;;;;;;13.45;82.35;90804.06;5112864;28;20220;-69
2022/12/11 03:54:40;;;;;;;8.70;8.40;;;;;;;13.52;80.54;90801.63;5112659;28;20191;-69
2022/12/11 03:57:07;;;;;;;9.03;8.50;;;;;;;13.51;81.14;90805.34;5112537;28;20220;-70
2022/12/11 03:59:32;;;;;;;8.13;7.83;;;;;;;13.31;81.46;90759.19;5112530;28;20206;-69
2022/12/11 04:01:58;;;;;;;8.70;8.23;;;;;;;13.46;82.02;90771.53;5112397;28;20211;-70
2022/12/11 04:04:23;;;;;;;8.27;7.87;;;;;;;13.60;80.78;90756.13;5113210;28;20179;-69
2022/12/11 04:06:49;;;;;;;8.60;8.30;;;;;;;13.48;82.62;90753.59;5112380;28;20216;-69
2022/12/11 04:09:14;;;;;;;8.60;8.10;;;;;;;13.57;79.92;90772.50;5112693;28;20258;-70
2022/12/11 04:11:41;;;;;;;8.93;8.63;;;;;;;13.40;81.72;90778.09;5112174;28;20228;-69
2022/12/11 04:16:58;;;;;;;9.20;8.70;;;;;;;13.18;82.07;90781.34;5111934;28;20243;-69
2022/12/11 04:24:54;;;;;;;8.30;8.00;;;;;;;13.15;81.16;90831.03;5112529;28;20203;-68
2022/12/11 04:30:07;;;;;;;8.73;8.37;;;;;;;13.44;82.45;90841.88;5112192;28;20206;-69
2022/12/11 04:32:32;;;;;;;8.20;7.90;;;;;;;13.26;82.73;90829.44;5111789;28;20239;-70
2022/12/11 04:34:57;;;;;;;9.07;8.67;;;;;;;12.82;87.14;90852.25;5112248;28;20199;-69
2022/12/11 04:37:23;;;;;;;8.50;8.10;;;;;;;12.92;86.79;90836.03;5111959;28;20212;-69
2022/12/11 04:39:49;;;;;;;10.20;9.70;;;;;;;12.80;87.04;90864.91;5111674;28;20192;-69
2022/12/11 04:42:14;;;;;;;9.17;8.77;;;;;;;13.00;86.58;90842.22;5111757;28;20243;-69
2022/12/11 04:44:39;;;;;;;9.13;8.57;;;;;;;12.81;88.45;90879.50;5112128;28;20184;-69
2022/12/11 04:47:05;;;;;;;8.97;8.57;;;;;;;12.88;87.84;90859.53;5111626;28;20227;-70
2022/12/11 04:49:30;;;;;;;9.00;8.60;;;;;;;12.89;87.12;90875.97;5111098;28;20284;-70
2022/12/11 04:51:55;;;;;;;8.30;8.00;;;;;;;12.53;89.64;90892.56;5111328;28;20499;-69
2022/12/11 04:54:21;;;;;;;9.50;9.10;;;;;;;12.62;88.49;90879.38;5111655;28;20201;-69
2022/12/11 04:56:46;;;;;;;9.13;8.73;;;;;;;12.56;89.01;90897.16;5111465;28;20243;-70
2022/12/11 04:59:12;;;;;;;8.93;8.53;;;;;;;12.75;85.42;90841.56;5111917;28;20202;-68
2022/12/11 05:01:37;;;;;;;8.60;8.20;;;;;;;12.97;80.66;90914.38;5111203;28;20219;-69
2022/12/11 05:04:02;;;;;;;8.73;8.33;;;;;;;12.80;83.70;90891.09;5111927;28;20199;-68
2022/12/11 05:06:28;;;;;;;8.50;8.20;;;;;;;13.53;75.24;90865.28;5111210;28;20219;-69
2022/12/11 05:08:53;;;;;;;8.70;8.40;;;;;;;13.49;75.86;90844.25;5110272;28;20191;-70
2022/12/11 05:11:18;;;;;;;8.70;8.30;;;;;;;13.65;74.20;90867.84;5105789;28;20228;-69
2022/12/11 05:13:44;;;;;;;8.23;7.93;;;;;;;13.76;73.81;90880.09;5111385;28;20208;-69
2022/12/11 05:16:12;;;;;;;8.70;8.40;;;;;;;13.87;73.72;90883.72;5110893;28;20219;-70
2022/12/11 05:18:37;;;;;;;9.40;9.00;;;;;;;13.49;75.41;90870.47;5111166;28;20195;-69
2022/12/11 05:21:06;;;;;;;8.47;8.07;;;;;;;13.32;77.41;90886.50;5111078;28;20223;-70
2022/12/11 05:23:32;;;;;;;8.20;7.90;;;;;;;13.24;75.97;90890.03;5110837;28;20223;-70
2022/12/11 05:26:03;;;;;;;8.50;8.20;;;;;;;13.35;75.85;90875.34;5110874;28;20223;-70
2022/12/11 05:28:31;;;;;;;8.50;8.00;;;;;;;13.16;77.35;90870.00;5110909;28;20226;-71
2022/12/11 05:31:03;;;;;;;9.53;8.63;;;;;;;13.21;77.58;90890.72;5110980;28;20228;-70
2022/12/11 05:33:29;;;;;;;8.73;8.33;;;;;;;13.34;75.98;90871.19;5092449;28;20215;-69
2022/12/11 05:35:55;;;;;;;9.10;8.57;;;;;;;13.58;74.02;90899.13;5110747;28;20261;-70
2022/12/11 05:38:21;;;;;;;8.13;7.83;;;;;;;13.76;73.21;90916.81;5110935;28;20184;-69
2022/12/11 05:41:07;;;;;;;9.03;8.63;;;;;;;13.73;74.31;90875.53;5110528;28;20789;-68
2022/12/11 05:43:35;;;;;;;8.60;8.20;;;;;;;13.69;72.79;90858.97;5110421;28;20247;-69
2022/12/11 05:46:14;;;;;;;8.37;8.07;;;;;;;13.61;74.47;90867.75;5110303;28;20230;-70
2022/12/11 05:48:40;;;;;;;8.83;8.40;;;;;;;13.72;73.00;90837.31;5098856;28;20213;-68
2022/12/11 05:51:07;;;;;;;9.10;8.60;;;;;;;13.61;74.90;90867.75;5110316;28;20296;-70
2022/12/11 05:53:34;;;;;;;8.87;8.37;;;;;;;13.32;75.39;90817.59;5109744;28;20269;-69
2022/12/11 05:56:25;;;;;;;8.60;8.20;;;;;;;13.64;73.41;90834.84;5109908;28;20215;-69
2022/12/11 05:58:51;;;;;;;8.93;8.50;;;;;;;14.04;70.61;90828.28;5095288;28;20259;-70
2022/12/11 06:01:41;;;;;;;8.47;8.17;;;;;;;14.02;71.52;90832.34;5109965;28;20283;-69
2022/12/11 06:04:08;;;;;;;8.80;8.33;;;;;;;13.86;73.26;90870.94;5109681;28;20184;-69
2022/12/11 06:06:33;;;;;;;9.47;8.97;;;;;;;13.92;72.07;90748.91;5105099;28;20212;-70
2022/12/11 06:08:59;;;;;;;8.93;8.43;;;;;;;13.85;70.83;90817.72;5092428;28;20247;-70
2022/12/11 06:11:28;;;;;;;8.47;8.03;;;;;;;13.96;71.02;90837.09;5109773;28;20249;-69
2022/12/11 06:13:54;;;;;;;9.23;8.93;;;;;;;13.77;70.99;90800.34;5109647;28;20233;-70
2022/12/11 06:16:20;;;;;;;8.67;8.37;;;;;;;13.96;69.00;90821.34;5108123;28;20219;-72
2022/12/11 06:18:46;;;;;;;9.10;8.70;;;;;;;14.35;68.89;90843.97;5107366;28;20226;-71
2022/12/11 06:21:16;;;;;;;8.53;8.23;;;;;;;14.29;70.59;90852.44;5099850;28;20230;-71
2022/12/11 06:23:43;;;;;;;8.73;8.43;;;;;;;14.01;72.93;90905.03;5109971;28;20206;-71
2022/12/11 06:26:09;;;;;;;9.60;8.60;;;;;;;13.64;75.48;90914.28;5104750;28;20223;-72
2022/12/11 06:28:35;;;;;;;8.30;7.77;;;;;;;13.73;73.05;90849.31;5097704;28;20223;-72
2022/12/11 06:31:01;;;;;;;8.33;7.93;;;;;;;13.74;75.02;90882.28;5109336;28;20235;-71
2022/12/11 06:33:26;;;;;;;8.37;8.07;;;;;;;13.70;75.45;90891.16;5091374;28;20223;-70
2022/12/11 06:35:52;;;;;;;9.20;8.70;;;;;;;14.06;72.49;90891.66;5109778;28;20235;-72
2022/12/11 06:38:17;;;;;;;8.63;8.20;;;;;;;14.00;73.93;90895.66;5109955;28;20690;-72
2022/12/11 06:40:43;;;;;;;8.90;8.40;;;;;;;13.87;74.30;90815.53;5109440;28;20220;-73
2022/12/11 06:43:08;;;;;;;8.50;8.20;;;;;;;14.09;73.16;90898.84;5091437;28;20737;-72
2022/12/11 06:45:33;;;;;;;8.40;8.10;;;;;;;14.13;70.52;90873.44;5109731;28;20191;-73
2022/12/11 06:47:59;;;;;;;8.73;8.33;;;;;;;14.61;69.42;90916.13;5109734;28;20936;-71
2022/12/11 06:50:25;;;;;;;8.33;8.03;;;;;;;14.41;69.00;90887.22;5109151;28;20780;-74
2022/12/11 06:52:50;;;;;;;8.67;8.17;;;;;;;14.30;71.01;90915.09;5108655;28;20207;-72
2022/12/11 06:55:15;;;;;;;9.03;8.73;;;;;;;14.33;71.29;90898.66;5110101;28;20211;-73
2022/12/11 06:57:41;;;;;;;9.10;8.63;;;;;;;14.43;69.35;90906.03;5109272;28;20204;-71
2022/12/11 07:00:07;;;;;;;8.87;8.37;;;;;;;14.26;71.21;90880.16;5110022;28;20176;-73
2022/12/11 07:02:33;;;;;;;9.00;8.23;;;;;;;14.47;71.26;90879.84;5108881;28;20234;-72
2022/12/11 07:04:58;;;;;;;8.20;7.90;;;;;;;14.55;69.92;90904.38;5108438;28;20222;-72
2022/12/11 07:07:23;;;;;;;9.10;8.70;;;;;;;14.41;70.31;90879.34;5104869;28;20231;-74
2022/12/11 07:09:49;;;;;;;8.63;8.20;;;;;;;14.48;71.24;90908.38;5109861;28;20194;-72
2022/12/11 07:12:16;;;;;;;8.97;8.50;;;;;;;14.32;72.55;90905.03;5109105;28;20226;-70
2022/12/11 07:14:41;;;;;;;8.47;8.07;;;;;;;14.21;71.80;90867.25;5109662;28;20184;-72
2022/12/11 07:17:06;;;;;;;9.03;8.43;;;;;;;14.18;72.28;90943.28;5109116;28;20228;-71
2022/12/11 07:19:32;;;;;;;8.60;8.07;;;;;;;14.28;71.83;90885.81;5109631;28;20194;-72
2022/12/11 07:21:57;;;;;;;8.50;8.10;;;;;;;14.43;71.22;90895.50;5108710;28;20228;-71
2022/12/11 07:24:23;;;;;;;8.60;8.20;;;;;;;14.46;70.82;90904.56;5109775;28;20199;-73
2022/12/11 07:26:48;;;;;;;8.80;8.50;;;;;;;14.34;72.04;90891.56;5108473;28;20946;-69
2022/12/11 07:29:13;;;;;;;9.33;8.70;;;;;;;14.32;76.62;90939.16;5091982;28;20192;-69
2022/12/11 07:31:39;;;;;;;8.87;8.47;;;;;;;14.41;71.53;90916.09;5108535;28;20215;-71
2022/12/11 07:34:05;;;;;;;8.77;8.37;;;;;;;14.73;70.27;90952.78;5109386;28;20689;-68
2022/12/11 07:36:31;;;;;;;8.57;8.27;;;;;;;14.41;70.60;90873.34;5091311;28;20236;-68
2022/12/11 07:38:58;;;;;;;9.03;8.53;;;;;;;14.75;69.22;90913.81;5109574;28;20363;-69
2022/12/11 07:41:26;;;;;;;8.23;7.93;;;;;;;14.39;71.97;90910.44;5108976;28;20231;-69
2022/12/11 07:43:52;;;;;;;9.17;8.67;;;;;;;14.43;72.17;90898.13;5109154;28;20176;-69
2022/12/11 07:46:20;;;;;;;9.27;8.80;;;;;;;14.47;72.78;90937.59;5107954;28;20228;-69
2022/12/11 07:48:47;;;;;;;9.00;8.60;;;;;;;14.52;70.30;90951.22;5102634;28;20185;-68
2022/12/11 07:51:17;;;;;;;8.83;8.50;;;;;;;14.60;72.74;90960.00;5105200;28;20215;-69
2022/12/11 07:53:44;;;;;;;9.33;8.93;;;;;;;14.69;71.21;90944.06;5089799;28;20223;-71
2022/12/11 07:56:09;;;;;;;8.57;8.27;;;;;;;14.70;70.04;90950.84;5110676;28;20215;-71
2022/12/11 07:58:37;;;;;;;9.60;9.10;;;;;;;14.77;69.14;90953.63;5112910;28;20233;-70
2022/12/11 08:01:09;;;;;;;9.10;8.70;;;;;;;14.47;70.40;90933.09;5111860;28;20212;-70
2022/12/11 08:03:34;;;;;;;8.50;8.10;;;;;;;14.87;68.66;90959.09;5113321;28;20192;-70
2022/12/11 08:06:00;;;;;;;9.10;8.50;;;;;;;14.92;68.55;90973.84;5112598;28;20216;-70
2022/12/11 08:08:25;;;;;;;9.07;8.73;;;;;;;14.73;70.00;90976.41;5112687;28;20188;-67
2022/12/11 08:10:50;;;;;;;9.10;8.70;;;;;;;14.89;69.67;90961.38;5111618;28;20220;-68
2022/12/11 08:13:16;;;;;;;8.57;8.27;;;;;;;14.93;70.25;90956.94;5112290;28;20220;-70
2022/12/11 08:15:41;;;;;;;8.83;8.47;;;;;;;14.67;74.20;90965.44;5094064;28;20216;-68
2022/12/11 08:18:07;;;;;;;9.70;9.20;;;;;;;14.57;74.92;90962.56;5094963;28;20248;-69
2022/12/11 08:20:32;;;;;;;8.80;8.40;;;;;;;14.62;75.38;90981.44;5112028;28;20180;-68
2022/12/11 08:22:58;;;;;;;8.13;7.83;;;;;;;14.62;73.80;91002.47;5110506;28;20180;-68
2022/12/11 08:25:23;;;;;;;8.50;8.20;;;;;;;14.54;72.67;90965.88;5108511;28;20181;-68
2022/12/11 08:27:48;;;;;;;8.73;8.43;;;;;;;14.99;73.11;90958.97;5112082;28;20281;-69
2022/12/11 08:30:14;;;;;;;8.20;7.77;;;;;;;14.71;74.52;90978.66;5112396;28;20190;-69
2022/12/11 08:32:39;;;;;;;8.37;8.03;;;;;;;14.88;72.68;90962.50;5111661;28;20227;-69
2022/12/11 08:35:05;;;;;;;8.80;8.50;;;;;;;14.87;72.87;90971.47;5112365;28;20191;-68
2022/12/11 08:37:32;;;;;;;8.27;7.93;;;;;;;14.88;75.66;90967.75;5112140;28;20228;-68
2022/12/11 08:39:58;;;;;;;8.90;8.50;;;;;;;14.84;72.57;90969.53;5110932;28;20206;-69
2022/12/11 08:42:23;;;;;;;8.17;7.87;;;;;;;14.48;73.01;90963.53;5111596;28;20248;-69
2022/12/11 08:44:49;;;;;;;9.10;8.70;;;;;;;14.48;76.47;90963.53;5111793;28;20199;-67
2022/12/11 08:47:14;;;;;;;9.47;8.90;;;;;;;14.43;78.37;90950.66;5111027;28;20278;-69
2022/12/11 08:49:39;;;;;;;8.63;8.30;;;;;;;14.22;76.84;90960.66;5111844;28;20190;-68
2022/12/11 08:52:05;;;;;;;8.70;8.40;;;;;;;14.08;81.53;90965.56;5093414;28;20208;-69
2022/12/11 08:54:31;;;;;;;11.83;11.10;;;;;;;14.14;80.21;90958.97;5093628;28;20173;-73
2022/12/11 08:56:56;;;;;;;13.07;12.20;;;;;;;14.20;80.71;90941.06;5111124;28;20208;-74
2022/12/11 08:59:22;;;;;;;11.13;10.40;;;;;;;14.34;80.47;90973.69;5111666;28;20188;-74
2022/12/11 09:01:47;;;;;;;8.70;8.20;;;;;;;14.69;76.05;90972.97;5111349;28;20275;-72
2022/12/11 09:04:13;;;;;;;8.70;8.40;;;;;;;14.92;75.72;90960.69;5093887;28;20204;-70
2022/12/11 09:06:38;;;;;;;9.20;8.80;;;;;;;14.82;78.44;90987.53;5110571;28;20215;-69
2022/12/11 09:09:05;;;;;;;9.60;9.10;;;;;;;15.03;76.78;90962.44;5111487;28;20206;-71
2022/12/11 09:11:33;;;;;;;8.83;8.53;;;;;;;15.14;73.31;90983.69;5110906;28;20228;-70
2022/12/11 09:13:59;;;;;;;9.53;9.07;;;;;;;14.74;71.26;90964.81;5110720;28;20268;-72
2022/12/11 09:16:25;;;;;;;9.10;8.70;;;;;;;15.24;71.41;90962.84;5093182;28;20228;-70
2022/12/11 09:18:53;;;;;;;9.30;8.90;;;;;;;15.71;68.41;90970.53;5111130;28;20243;-72
2022/12/11 09:21:21;;;;;;;9.30;8.80;;;;;;;15.64;69.91;90962.53;5110979;28;20220;-70
2022/12/11 09:23:46;;;;;;;9.33;8.93;;;;;;;15.87;69.53;90960.66;5110969;28;20237;-69
2022/12/11 09:26:14;;;;;;;8.77;8.37;;;;;;;15.88;71.84;90991.13;5111036;28;20215;-69
2022/12/11 09:28:41;;;;;;;8.80;8.50;;;;;;;15.58;67.54;90974.44;5107649;28;20212;-68
2022/12/11 09:31:27;;;;;;;9.03;8.63;;;;;;;15.15;74.34;90974.69;5110644;28;20238;-70
2022/12/11 09:33:55;;;;;;;9.10;8.50;;;;;;;15.57;69.58;90962.38;5105440;28;20201;-71
2022/12/11 09:36:21;;;;;;;8.70;8.40;;;;;;;15.06;68.75;90958.34;5106780;28;20219;-69
2022/12/11 09:38:46;;;;;;;8.40;8.10;;;;;;;14.89;69.38;90966.63;5111044;28;20169;-68
2022/12/11 09:41:21;;;;;;;9.27;8.80;;;;;;;15.16;72.53;90952.56;5110400;28;20219;-69
2022/12/11 09:44:22;;;;;;;9.10;8.47;;;;;;;14.91;71.78;90951.31;5111156;28;20194;-69
2022/12/11 09:46:48;;;;;;;9.10;8.70;;;;;;;15.14;72.98;90962.66;5109835;28;20275;-71
2022/12/11 09:49:38;;;;;;;9.03;8.63;;;;;;;14.96;74.69;90953.66;5110311;28;20217;-70
2022/12/11 09:52:12;;;;;;;8.93;8.33;;;;;;;14.58;77.92;90949.09;5109678;28;20224;-71
2022/12/11 09:54:53;;;;;;;8.93;8.30;;;;;;;14.49;81.55;90938.78;5096779;28;20224;-70
2022/12/11 09:57:24;;;;;;;9.07;8.67;;;;;;;14.46;81.95;90942.09;5110457;28;20269;-69
2022/12/11 09:59:59;;;;;;;9.33;8.83;;;;;;;14.52;80.72;90936.56;5090887;28;20198;-71
2022/12/11 10:03:09;;;;;;;10.30;9.70;;;;;;;14.71;84.14;90931.38;5109305;28;20231;-71
2022/12/11 10:05:53;;;;;;;9.10;8.77;;;;;;;14.41;81.07;90937.09;5072996;28;20227;-72
2022/12/11 10:08:31;;;;;;;8.80;8.33;;;;;;;14.85;82.32;90940.28;5109520;28;20196;-71
2022/12/11 10:11:02;;;;;;;9.50;9.10;;;;;;;15.21;79.60;90941.75;5108988;28;20230;-72
2022/12/11 10:13:37;;;;;;;9.23;8.83;;;;;;;14.89;85.39;90946.38;5108560;28;20208;-73
2022/12/11 10:16:04;;;;;;;10.10;9.50;;;;;;;14.87;90.58;90932.06;5110187;28;20287;-72
2022/12/11 10:18:31;;;;;;;9.23;8.83;;;;;;;14.59;94.92;90931.47;5107590;28;20180;-72
2022/12/11 10:21:01;;;;;;;9.13;8.53;;;;;;;14.30;91.53;90928.22;5109943;28;20245;-71
2022/12/11 10:23:34;;;;;;;8.70;8.30;;;;;;;14.33;91.13;90929.41;5110400;28;20182;-72
2022/12/11 10:26:11;;;;;;;10.40;9.60;;;;;;;14.01;94.85;90910.28;5109976;28;20229;-72
2022/12/11 10:28:36;;;;;;;10.23;9.63;;;;;;;14.18;91.35;90865.31;5107795;28;20223;-72
2022/12/11 10:31:29;;;;;;;9.70;9.20;;;;;;;14.77;89.10;90930.00;5108845;28;20252;-72
2022/12/11 10:34:01;;;;;;;9.67;9.27;;;;;;;15.00;86.01;90930.84;5109673;28;20208;-73
2022/12/11 10:36:36;;;;;;;9.73;9.20;;;;;;;15.20;87.98;90942.88;5107406;28;20326;-73
2022/12/11 10:39:09;;;;;;;10.00;9.37;;;;;;;15.22;90.55;90927.50;5099428;28;20183;-69
2022/12/11 10:41:41;;;;;;;9.60;9.17;;;;;;;15.22;87.14;90915.13;5109688;28;20250;-70
2022/12/11 10:44:16;;;;;;;9.40;8.80;;;;;;;15.10;88.79;90927.63;5091112;28;20176;-71
2022/12/11 10:46:42;;;;;;;8.47;8.17;;;;;;;14.45;79.67;90892.53;5109250;28;20294;-69
2022/12/11 10:49:26;;;;;;;8.90;8.20;;;;;;;14.25;82.25;90912.75;5109326;28;20199;-70
2022/12/11 10:51:54;;;;;;;9.13;8.63;;;;;;;14.38;86.25;90916.03;5108742;28;20298;-70
2022/12/11 10:54:30;;;;;;;9.07;8.57;;;;;;;14.20;87.78;90915.59;5108911;28;20258;-70
2022/12/11 10:56:56;;;;;;;9.10;8.63;;;;;;;14.50;83.17;90923.78;5106124;28;20219;-71
2022/12/11 10:59:42;;;;;;;9.13;8.83;;;;;;;14.44;89.08;90914.66;5107761;28;20215;-70
2022/12/11 11:02:33;;;;;;;8.80;8.40;;;;;;;14.93;80.16;90914.91;5107299;28;20215;-70
2022/12/11 11:05:09;;;;;;;10.40;9.90;;;;;;;14.19;76.90;90898.31;5102352;28;21208;-69
2022/12/11 11:07:34;;;;;;;7.97;7.57;;;;;;;14.60;83.33;90904.84;5109508;28;20318;-72
2022/12/11 11:10:08;;;;;;;8.43;8.13;;;;;;;14.65;84.14;90898.56;5109653;28;20202;-74
2022/12/11 11:12:40;;;;;;;9.47;8.97;;;;;;;14.69;81.75;90904.69;5108936;28;20223;-70
2022/12/11 11:15:30;;;;;;;9.70;9.30;;;;;;;14.66;80.88;90905.38;5108557;28;20195;-69
2022/12/11 11:18:13;;;;;;;13.80;12.63;;;;;;;14.38;91.13;90895.03;5106462;28;20208;-70
2022/12/11 11:20:45;;;;;;;10.83;10.07;;;;;;;13.74;93.88;90887.53;5108820;28;20302;-69
2022/12/11 11:23:13;;;;;;;12.00;11.30;;;;;;;14.38;92.56;90890.53;5099539;28;20184;-69
2022/12/11 11:25:49;;;;;;;9.53;8.93;;;;;;;13.76;96.91;90874.84;5102911;28;20220;-69
2022/12/11 11:28:21;;;;;;;11.80;10.80;;;;;;;13.81;100.00;90892.19;5107938;28;20223;-70
2022/12/11 11:31:00;;;;;;;13.20;12.40;;;;;;;13.93;99.32;90890.22;5112473;28;20223;-71
2022/12/11 11:33:27;;;;;;;10.17;9.50;;;;;;;14.06;99.53;90889.03;5113030;28;20219;-72
2022/12/11 11:35:55;;;;;;;12.63;11.83;;;;;;;13.94;100.00;90907.50;5095493;28;20243;-73
2022/12/11 11:38:29;;;;;;;9.87;9.37;;;;;;;13.74;100.00;90911.13;5113295;28;20176;-71
2022/12/11 11:41:11;;;;;;;11.77;10.77;;;;;;;13.54;100.00;90898.28;5112869;28;20231;-75
2022/12/11 11:43:45;;;;;;;12.27;11.37;;;;;;;13.73;100.00;90883.38;5093071;28;20270;-74
2022/12/11 11:46:17;;;;;;;13.70;12.80;;;;;;;13.67;100.00;90892.63;5108667;28;20226;-79
2022/12/11 11:48:59;;;;;;;12.53;11.50;;;;;;;13.59;100.00;90875.19;5113068;28;20179;-73
2022/12/11 11:51:37;;;;;;;11.63;10.93;;;;;;;13.76;100.00;90863.63;5112558;28;20244;-74